sensor_id;sensor_type;location;lat;lon;timestamp;P1;durP1;ratioP1;P2;durP2;ratioP2
76125;SDS011;65174;48.138;21.002;2023-02-14T00:00:41;37.40;;;16.50;;
76125;SDS011;65174;48.138;21.002;2023-02-14T00:03:43;42.50;;;18.42;;
76125;SDS011;65174;48.138;21.002;2023-02-14T00:06:45;28.45;;;14.45;;
76125;SDS011;65174;48.138;21.002;2023-02-14T00:09:47;34.77;;;16.33;;
76125;SDS011;65174;48.138;21.002;2023-02-14T00:12:49;32.63;;;14.88;;
76125;SDS011;65174;48.138;21.002;2023-02-14T00:15:51;35.15;;;16.70;;
76125;SDS011;65174;48.138;21.002;2023-02-14T00:18:53;31.38;;;14.88;;
76125;SDS011;65174;48.138;21.002;2023-02-14T00:22:04;35.60;;;17.13;;
76125;SDS011;65174;48.138;21.002;2023-02-14T00:25:06;38.10;;;17.03;;
76125;SDS011;65174;48.138;21.002;2023-02-14T00:28:08;30.98;;;14.98;;
76125;SDS011;65174;48.138;21.002;2023-02-14T00:31:10;37.83;;;16.70;;
76125;SDS011;65174;48.138;21.002;2023-02-14T00:34:13;40.20;;;18.27;;
76125;SDS011;65174;48.138;21.002;2023-02-14T00:37:16;44.75;;;21.40;;
76125;SDS011;65174;48.138;21.002;2023-02-14T00:40:18;52.17;;;20.93;;
76125;SDS011;65174;48.138;21.002;2023-02-14T00:43:20;42.88;;;19.60;;
76125;SDS011;65174;48.138;21.002;2023-02-14T00:49:40;39.08;;;19.83;;
76125;SDS011;65174;48.138;21.002;2023-02-14T00:52:42;44.25;;;23.35;;
76125;SDS011;65174;48.138;21.002;2023-02-14T00:55:44;39.63;;;18.50;;
76125;SDS011;65174;48.138;21.002;2023-02-14T00:58:48;37.28;;;17.48;;
76125;SDS011;65174;48.138;21.002;2023-02-14T01:01:51;37.03;;;18.42;;
76125;SDS011;65174;48.138;21.002;2023-02-14T01:04:53;36.67;;;17.25;;
76125;SDS011;65174;48.138;21.002;2023-02-14T01:07:55;35.25;;;17.02;;
76125;SDS011;65174;48.138;21.002;2023-02-14T01:10:57;34.60;;;17.17;;
76125;SDS011;65174;48.138;21.002;2023-02-14T01:14:00;37.42;;;17.02;;
76125;SDS011;65174;48.138;21.002;2023-02-14T01:17:02;44.38;;;19.27;;
76125;SDS011;65174;48.138;21.002;2023-02-14T01:20:04;39.78;;;19.08;;
76125;SDS011;65174;48.138;21.002;2023-02-14T01:23:07;41.25;;;19.95;;
76125;SDS011;65174;48.138;21.002;2023-02-14T01:26:10;38.40;;;18.57;;
76125;SDS011;65174;48.138;21.002;2023-02-14T01:29:12;42.92;;;20.65;;
76125;SDS011;65174;48.138;21.002;2023-02-14T01:32:14;42.97;;;20.02;;
76125;SDS011;65174;48.138;21.002;2023-02-14T01:35:16;45.25;;;20.13;;
76125;SDS011;65174;48.138;21.002;2023-02-14T01:38:18;42.83;;;21.02;;
76125;SDS011;65174;48.138;21.002;2023-02-14T01:41:21;47.23;;;20.83;;
76125;SDS011;65174;48.138;21.002;2023-02-14T01:47:29;47.03;;;20.58;;
76125;SDS011;65174;48.138;21.002;2023-02-14T01:50:36;44.88;;;21.63;;
76125;SDS011;65174;48.138;21.002;2023-02-14T01:53:41;47.30;;;21.50;;
76125;SDS011;65174;48.138;21.002;2023-02-14T01:56:45;48.00;;;22.70;;
76125;SDS011;65174;48.138;21.002;2023-02-14T01:59:52;54.58;;;22.90;;
76125;SDS011;65174;48.138;21.002;2023-02-14T02:03:18;47.55;;;21.58;;
76125;SDS011;65174;48.138;21.002;2023-02-14T02:06:37;60.03;;;27.63;;
76125;SDS011;65174;48.138;21.002;2023-02-14T02:09:45;45.47;;;22.20;;
76125;SDS011;65174;48.138;21.002;2023-02-14T02:12:52;57.27;;;27.77;;
76125;SDS011;65174;48.138;21.002;2023-02-14T02:46:05;72.90;;;34.67;;
76125;SDS011;65174;48.138;21.002;2023-02-14T02:56:22;64.82;;;30.65;;
76125;SDS011;65174;48.138;21.002;2023-02-14T02:59:46;69.80;;;32.33;;
76125;SDS011;65174;48.138;21.002;2023-02-14T03:02:50;67.70;;;30.93;;
76125;SDS011;65174;48.138;21.002;2023-02-14T03:06:14;61.10;;;30.48;;
76125;SDS011;65174;48.138;21.002;2023-02-14T03:12:28;61.45;;;28.27;;
76125;SDS011;65174;48.138;21.002;2023-02-14T03:22:55;57.65;;;27.10;;
76125;SDS011;65174;48.138;21.002;2023-02-14T03:26:11;59.13;;;26.88;;
76125;SDS011;65174;48.138;21.002;2023-02-14T03:29:24;57.25;;;25.67;;
76125;SDS011;65174;48.138;21.002;2023-02-14T03:39:09;48.55;;;22.95;;
76125;SDS011;65174;48.138;21.002;2023-02-14T03:42:18;50.53;;;22.98;;
76125;SDS011;65174;48.138;21.002;2023-02-14T03:45:31;50.35;;;22.80;;
76125;SDS011;65174;48.138;21.002;2023-02-14T03:48:37;44.97;;;19.83;;
76125;SDS011;65174;48.138;21.002;2023-02-14T03:51:42;47.93;;;21.53;;
76125;SDS011;65174;48.138;21.002;2023-02-14T03:54:49;53.00;;;23.75;;
76125;SDS011;65174;48.138;21.002;2023-02-14T03:57:57;47.90;;;22.08;;
76125;SDS011;65174;48.138;21.002;2023-02-14T04:01:11;47.47;;;20.67;;
76125;SDS011;65174;48.138;21.002;2023-02-14T04:04:18;47.53;;;21.55;;
76125;SDS011;65174;48.138;21.002;2023-02-14T04:07:23;41.90;;;18.80;;
76125;SDS011;65174;48.138;21.002;2023-02-14T04:10:26;45.38;;;20.30;;
76125;SDS011;65174;48.138;21.002;2023-02-14T04:13:28;42.75;;;20.98;;
76125;SDS011;65174;48.138;21.002;2023-02-14T04:16:30;40.15;;;20.02;;
76125;SDS011;65174;48.138;21.002;2023-02-14T04:19:52;46.08;;;22.88;;
76125;SDS011;65174;48.138;21.002;2023-02-14T04:22:54;38.10;;;19.30;;
76125;SDS011;65174;48.138;21.002;2023-02-14T04:25:56;43.05;;;19.38;;
76125;SDS011;65174;48.138;21.002;2023-02-14T04:28:58;46.83;;;20.90;;
76125;SDS011;65174;48.138;21.002;2023-02-14T04:32:00;50.55;;;20.27;;
76125;SDS011;65174;48.138;21.002;2023-02-14T04:35:02;47.65;;;20.30;;
76125;SDS011;65174;48.138;21.002;2023-02-14T04:38:05;44.47;;;20.67;;
76125;SDS011;65174;48.138;21.002;2023-02-14T04:41:07;46.83;;;20.60;;
76125;SDS011;65174;48.138;21.002;2023-02-14T04:44:09;55.40;;;24.10;;
76125;SDS011;65174;48.138;21.002;2023-02-14T04:47:11;51.22;;;23.08;;
76125;SDS011;65174;48.138;21.002;2023-02-14T04:50:13;48.70;;;23.23;;
76125;SDS011;65174;48.138;21.002;2023-02-14T04:53:15;46.63;;;22.03;;
76125;SDS011;65174;48.138;21.002;2023-02-14T04:56:19;43.63;;;20.23;;
76125;SDS011;65174;48.138;21.002;2023-02-14T04:59:21;48.05;;;21.77;;
76125;SDS011;65174;48.138;21.002;2023-02-14T05:02:25;49.45;;;21.90;;
76125;SDS011;65174;48.138;21.002;2023-02-14T05:05:27;50.83;;;24.45;;
76125;SDS011;65174;48.138;21.002;2023-02-14T05:08:29;60.00;;;25.00;;
76125;SDS011;65174;48.138;21.002;2023-02-14T05:11:31;54.17;;;24.52;;
76125;SDS011;65174;48.138;21.002;2023-02-14T05:14:33;51.85;;;24.23;;
76125;SDS011;65174;48.138;21.002;2023-02-14T05:17:35;52.65;;;24.73;;
76125;SDS011;65174;48.138;21.002;2023-02-14T05:20:37;53.10;;;24.35;;
76125;SDS011;65174;48.138;21.002;2023-02-14T05:23:39;50.13;;;22.33;;
76125;SDS011;65174;48.138;21.002;2023-02-14T05:26:41;46.67;;;21.38;;
76125;SDS011;65174;48.138;21.002;2023-02-14T05:29:46;53.90;;;22.25;;
76125;SDS011;65174;48.138;21.002;2023-02-14T05:32:48;48.17;;;23.05;;
76125;SDS011;65174;48.138;21.002;2023-02-14T05:35:50;45.10;;;22.25;;
76125;SDS011;65174;48.138;21.002;2023-02-14T05:38:52;49.27;;;23.13;;
76125;SDS011;65174;48.138;21.002;2023-02-14T05:41:54;46.80;;;22.10;;
76125;SDS011;65174;48.138;21.002;2023-02-14T05:44:59;45.20;;;22.33;;
76125;SDS011;65174;48.138;21.002;2023-02-14T05:48:01;65.50;;;29.52;;
76125;SDS011;65174;48.138;21.002;2023-02-14T05:51:04;51.55;;;23.15;;
76125;SDS011;65174;48.138;21.002;2023-02-14T05:54:07;46.97;;;21.33;;
76125;SDS011;65174;48.138;21.002;2023-02-14T05:57:11;46.47;;;22.05;;
76125;SDS011;65174;48.138;21.002;2023-02-14T06:00:13;55.88;;;25.65;;
76125;SDS011;65174;48.138;21.002;2023-02-14T06:03:15;86.78;;;35.90;;
76125;SDS011;65174;48.138;21.002;2023-02-14T06:06:17;65.00;;;28.52;;
76125;SDS011;65174;48.138;21.002;2023-02-14T06:09:19;64.83;;;28.33;;
76125;SDS011;65174;48.138;21.002;2023-02-14T06:12:22;55.80;;;24.38;;
76125;SDS011;65174;48.138;21.002;2023-02-14T06:15:24;63.42;;;26.88;;
76125;SDS011;65174;48.138;21.002;2023-02-14T06:18:26;52.67;;;24.20;;
76125;SDS011;65174;48.138;21.002;2023-02-14T06:21:30;50.63;;;23.73;;
76125;SDS011;65174;48.138;21.002;2023-02-14T06:24:32;74.53;;;27.70;;
76125;SDS011;65174;48.138;21.002;2023-02-14T06:27:34;107.78;;;36.83;;
76125;SDS011;65174;48.138;21.002;2023-02-14T06:30:36;99.38;;;34.70;;
76125;SDS011;65174;48.138;21.002;2023-02-14T06:33:38;58.40;;;27.25;;
76125;SDS011;65174;48.138;21.002;2023-02-14T06:36:40;67.20;;;29.73;;
76125;SDS011;65174;48.138;21.002;2023-02-14T06:39:42;74.07;;;30.50;;
76125;SDS011;65174;48.138;21.002;2023-02-14T06:42:44;75.47;;;32.25;;
76125;SDS011;65174;48.138;21.002;2023-02-14T06:45:46;100.22;;;38.67;;
76125;SDS011;65174;48.138;21.002;2023-02-14T06:48:47;72.15;;;30.30;;
76125;SDS011;65174;48.138;21.002;2023-02-14T06:51:49;177.85;;;70.30;;
76125;SDS011;65174;48.138;21.002;2023-02-14T06:54:52;206.30;;;85.57;;
76125;SDS011;65174;48.138;21.002;2023-02-14T06:57:53;67.05;;;32.42;;
76125;SDS011;65174;48.138;21.002;2023-02-14T07:00:56;74.53;;;36.00;;
76125;SDS011;65174;48.138;21.002;2023-02-14T07:04:00;91.43;;;42.45;;
76125;SDS011;65174;48.138;21.002;2023-02-14T07:07:02;84.65;;;41.70;;
76125;SDS011;65174;48.138;21.002;2023-02-14T07:10:05;85.57;;;53.27;;
76125;SDS011;65174;48.138;21.002;2023-02-14T07:13:07;104.10;;;63.47;;
76125;SDS011;65174;48.138;21.002;2023-02-14T07:16:10;95.53;;;57.72;;
76125;SDS011;65174;48.138;21.002;2023-02-14T07:19:12;79.80;;;39.25;;
76125;SDS011;65174;48.138;21.002;2023-02-14T07:22:14;87.65;;;48.33;;
76125;SDS011;65174;48.138;21.002;2023-02-14T07:25:16;80.67;;;41.43;;
76125;SDS011;65174;48.138;21.002;2023-02-14T07:28:18;58.05;;;29.27;;
76125;SDS011;65174;48.138;21.002;2023-02-14T07:31:20;68.45;;;33.38;;
76125;SDS011;65174;48.138;21.002;2023-02-14T07:34:24;63.00;;;30.23;;
76125;SDS011;65174;48.138;21.002;2023-02-14T07:37:27;129.35;;;63.92;;
76125;SDS011;65174;48.138;21.002;2023-02-14T07:40:29;89.83;;;42.60;;
76125;SDS011;65174;48.138;21.002;2023-02-14T07:43:31;69.78;;;34.25;;
76125;SDS011;65174;48.138;21.002;2023-02-14T07:46:34;73.35;;;36.33;;
76125;SDS011;65174;48.138;21.002;2023-02-14T07:49:37;71.15;;;35.25;;
76125;SDS011;65174;48.138;21.002;2023-02-14T07:52:39;108.70;;;58.92;;
76125;SDS011;65174;48.138;21.002;2023-02-14T07:55:41;53.20;;;26.03;;
76125;SDS011;65174;48.138;21.002;2023-02-14T07:58:43;89.40;;;43.50;;
76125;SDS011;65174;48.138;21.002;2023-02-14T08:01:45;76.60;;;36.15;;
76125;SDS011;65174;48.138;21.002;2023-02-14T08:04:47;37.58;;;19.42;;
76125;SDS011;65174;48.138;21.002;2023-02-14T08:07:49;56.65;;;27.95;;
76125;SDS011;65174;48.138;21.002;2023-02-14T08:10:51;33.73;;;17.43;;
76125;SDS011;65174;48.138;21.002;2023-02-14T08:13:53;42.67;;;20.75;;
76125;SDS011;65174;48.138;21.002;2023-02-14T08:16:54;61.17;;;29.60;;
76125;SDS011;65174;48.138;21.002;2023-02-14T08:19:57;42.83;;;19.73;;
76125;SDS011;65174;48.138;21.002;2023-02-14T08:22:59;37.03;;;17.38;;
76125;SDS011;65174;48.138;21.002;2023-02-14T08:26:00;52.27;;;23.77;;
76125;SDS011;65174;48.138;21.002;2023-02-14T08:29:03;48.05;;;19.70;;
76125;SDS011;65174;48.138;21.002;2023-02-14T08:32:05;42.70;;;21.73;;
76125;SDS011;65174;48.138;21.002;2023-02-14T08:35:07;37.38;;;16.45;;
76125;SDS011;65174;48.138;21.002;2023-02-14T08:38:09;35.47;;;17.08;;
76125;SDS011;65174;48.138;21.002;2023-02-14T08:41:11;44.97;;;19.37;;
76125;SDS011;65174;48.138;21.002;2023-02-14T08:44:13;36.28;;;19.02;;
76125;SDS011;65174;48.138;21.002;2023-02-14T08:47:16;42.08;;;20.25;;
76125;SDS011;65174;48.138;21.002;2023-02-14T08:50:18;40.67;;;17.38;;
76125;SDS011;65174;48.138;21.002;2023-02-14T08:53:21;39.33;;;17.60;;
76125;SDS011;65174;48.138;21.002;2023-02-14T08:56:23;48.90;;;19.87;;
76125;SDS011;65174;48.138;21.002;2023-02-14T08:59:25;40.60;;;19.30;;
76125;SDS011;65174;48.138;21.002;2023-02-14T09:02:27;41.80;;;19.13;;
76125;SDS011;65174;48.138;21.002;2023-02-14T09:05:29;35.65;;;16.23;;
76125;SDS011;65174;48.138;21.002;2023-02-14T09:08:31;32.08;;;16.65;;
76125;SDS011;65174;48.138;21.002;2023-02-14T09:11:35;35.47;;;17.37;;
76125;SDS011;65174;48.138;21.002;2023-02-14T09:14:38;32.55;;;17.50;;
76125;SDS011;65174;48.138;21.002;2023-02-14T09:17:44;39.45;;;19.15;;
76125;SDS011;65174;48.138;21.002;2023-02-14T09:20:46;36.72;;;18.60;;
76125;SDS011;65174;48.138;21.002;2023-02-14T09:23:48;35.92;;;17.48;;
76125;SDS011;65174;48.138;21.002;2023-02-14T09:26:50;33.77;;;16.83;;
76125;SDS011;65174;48.138;21.002;2023-02-14T09:29:52;47.72;;;19.17;;
76125;SDS011;65174;48.138;21.002;2023-02-14T09:32:55;33.45;;;18.48;;
76125;SDS011;65174;48.138;21.002;2023-02-14T09:35:56;36.95;;;19.58;;
76125;SDS011;65174;48.138;21.002;2023-02-14T09:39:17;36.05;;;17.38;;
76125;SDS011;65174;48.138;21.002;2023-02-14T09:45:46;29.33;;;14.63;;
76125;SDS011;65174;48.138;21.002;2023-02-14T09:48:55;23.95;;;13.65;;
76125;SDS011;65174;48.138;21.002;2023-02-14T09:52:00;25.33;;;12.70;;
76125;SDS011;65174;48.138;21.002;2023-02-14T09:55:03;24.63;;;13.40;;
76125;SDS011;65174;48.138;21.002;2023-02-14T09:58:14;32.30;;;13.97;;
76125;SDS011;65174;48.138;21.002;2023-02-14T10:01:32;27.05;;;12.90;;
76125;SDS011;65174;48.138;21.002;2023-02-14T10:04:40;23.73;;;11.27;;
76125;SDS011;65174;48.138;21.002;2023-02-14T10:07:57;26.33;;;13.90;;
76125;SDS011;65174;48.138;21.002;2023-02-14T10:11:37;21.20;;;11.77;;
76125;SDS011;65174;48.138;21.002;2023-02-14T10:14:41;29.73;;;13.80;;
76125;SDS011;65174;48.138;21.002;2023-02-14T10:17:48;22.33;;;12.38;;
76125;SDS011;65174;48.138;21.002;2023-02-14T10:20:57;25.88;;;13.30;;
76125;SDS011;65174;48.138;21.002;2023-02-14T10:25:02;21.88;;;12.20;;
76125;SDS011;65174;48.138;21.002;2023-02-14T10:29:05;21.42;;;11.80;;
76125;SDS011;65174;48.138;21.002;2023-02-14T10:33:09;30.53;;;14.90;;
76125;SDS011;65174;48.138;21.002;2023-02-14T10:36:20;32.33;;;17.83;;
76125;SDS011;65174;48.138;21.002;2023-02-14T10:45:46;26.00;;;14.98;;
76125;SDS011;65174;48.138;21.002;2023-02-14T10:55:18;19.90;;;11.18;;
76125;SDS011;65174;48.138;21.002;2023-02-14T10:58:34;23.27;;;12.05;;
76125;SDS011;65174;48.138;21.002;2023-02-14T11:01:40;24.70;;;12.45;;
76125;SDS011;65174;48.138;21.002;2023-02-14T11:19:21;14.07;;;7.82;;
76125;SDS011;65174;48.138;21.002;2023-02-14T11:22:29;20.55;;;10.63;;
76125;SDS011;65174;48.138;21.002;2023-02-14T11:25:33;16.10;;;8.63;;
76125;SDS011;65174;48.138;21.002;2023-02-14T11:28:42;16.73;;;8.90;;
76125;SDS011;65174;48.138;21.002;2023-02-14T11:31:49;12.38;;;6.63;;
76125;SDS011;65174;48.138;21.002;2023-02-14T11:37:54;71.82;;;38.85;;
76125;SDS011;65174;48.138;21.002;2023-02-14T11:40:58;19.80;;;11.80;;
76125;SDS011;65174;48.138;21.002;2023-02-14T11:44:14;16.15;;;7.70;;
76125;SDS011;65174;48.138;21.002;2023-02-14T11:47:26;11.93;;;6.68;;
76125;SDS011;65174;48.138;21.002;2023-02-14T11:50:31;62.65;;;20.73;;
76125;SDS011;65174;48.138;21.002;2023-02-14T11:53:43;32.42;;;10.43;;
76125;SDS011;65174;48.138;21.002;2023-02-14T11:56:53;12.93;;;5.53;;
76125;SDS011;65174;48.138;21.002;2023-02-14T11:59:58;11.07;;;5.32;;
76125;SDS011;65174;48.138;21.002;2023-02-14T12:03:14;9.57;;;4.72;;
76125;SDS011;65174;48.138;21.002;2023-02-14T12:06:23;11.80;;;6.05;;
76125;SDS011;65174;48.138;21.002;2023-02-14T12:09:27;13.18;;;6.63;;
76125;SDS011;65174;48.138;21.002;2023-02-14T12:12:31;13.70;;;6.93;;
76125;SDS011;65174;48.138;21.002;2023-02-14T12:21:50;8.75;;;4.57;;
76125;SDS011;65174;48.138;21.002;2023-02-14T12:28:25;8.97;;;4.90;;
76125;SDS011;65174;48.138;21.002;2023-02-14T12:31:32;13.43;;;6.25;;
76125;SDS011;65174;48.138;21.002;2023-02-14T12:34:34;11.65;;;6.85;;
76125;SDS011;65174;48.138;21.002;2023-02-14T12:37:44;21.52;;;9.88;;
76125;SDS011;65174;48.138;21.002;2023-02-14T12:44:27;11.43;;;4.97;;
76125;SDS011;65174;48.138;21.002;2023-02-14T13:14:07;13.75;;;5.60;;
76125;SDS011;65174;48.138;21.002;2023-02-14T13:17:53;8.23;;;5.17;;
76125;SDS011;65174;48.138;21.002;2023-02-14T13:21:00;11.15;;;5.63;;
76125;SDS011;65174;48.138;21.002;2023-02-14T13:24:22;8.75;;;5.32;;
76125;SDS011;65174;48.138;21.002;2023-02-14T13:27:30;16.50;;;4.55;;
76125;SDS011;65174;48.138;21.002;2023-02-14T13:30:35;4.70;;;2.88;;
76125;SDS011;65174;48.138;21.002;2023-02-14T13:33:40;7.70;;;4.07;;
76125;SDS011;65174;48.138;21.002;2023-02-14T13:36:49;17.88;;;3.88;;
76125;SDS011;65174;48.138;21.002;2023-02-14T13:39:55;10.70;;;5.03;;
76125;SDS011;65174;48.138;21.002;2023-02-14T13:43:01;14.57;;;5.28;;
76125;SDS011;65174;48.138;21.002;2023-02-14T13:46:04;12.20;;;4.28;;
76125;SDS011;65174;48.138;21.002;2023-02-14T13:52:40;8.32;;;4.72;;
76125;SDS011;65174;48.138;21.002;2023-02-14T13:55:47;7.13;;;4.18;;
76125;SDS011;65174;48.138;21.002;2023-02-14T13:58:57;8.57;;;4.38;;
76125;SDS011;65174;48.138;21.002;2023-02-14T14:08:45;14.05;;;4.97;;
76125;SDS011;65174;48.138;21.002;2023-02-14T14:11:49;9.77;;;4.57;;
76125;SDS011;65174;48.138;21.002;2023-02-14T14:15:08;7.50;;;4.35;;
76125;SDS011;65174;48.138;21.002;2023-02-14T14:21:14;9.57;;;4.32;;
76125;SDS011;65174;48.138;21.002;2023-02-14T14:24:38;10.32;;;4.80;;
76125;SDS011;65174;48.138;21.002;2023-02-14T14:27:45;14.43;;;6.00;;
76125;SDS011;65174;48.138;21.002;2023-02-14T14:30:47;19.08;;;8.15;;
76125;SDS011;65174;48.138;21.002;2023-02-14T14:33:56;7.73;;;4.53;;
76125;SDS011;65174;48.138;21.002;2023-02-14T14:36:59;14.15;;;7.50;;
76125;SDS011;65174;48.138;21.002;2023-02-14T14:40:04;7.03;;;4.80;;
76125;SDS011;65174;48.138;21.002;2023-02-14T14:43:11;9.10;;;4.43;;
76125;SDS011;65174;48.138;21.002;2023-02-14T14:46:18;12.05;;;5.45;;
76125;SDS011;65174;48.138;21.002;2023-02-14T14:49:20;8.10;;;4.60;;
76125;SDS011;65174;48.138;21.002;2023-02-14T14:52:25;12.27;;;8.13;;
76125;SDS011;65174;48.138;21.002;2023-02-14T14:55:35;8.73;;;5.20;;
76125;SDS011;65174;48.138;21.002;2023-02-14T14:58:39;11.50;;;7.53;;
76125;SDS011;65174;48.138;21.002;2023-02-14T15:01:42;10.25;;;6.53;;
76125;SDS011;65174;48.138;21.002;2023-02-14T15:04:46;11.43;;;6.03;;
76125;SDS011;65174;48.138;21.002;2023-02-14T15:07:48;20.27;;;7.32;;
76125;SDS011;65174;48.138;21.002;2023-02-14T15:10:54;12.50;;;8.38;;
76125;SDS011;65174;48.138;21.002;2023-02-14T15:14:01;10.30;;;5.97;;
76125;SDS011;65174;48.138;21.002;2023-02-14T15:17:10;14.55;;;7.00;;
76125;SDS011;65174;48.138;21.002;2023-02-14T15:20:19;13.40;;;7.70;;
76125;SDS011;65174;48.138;21.002;2023-02-14T15:23:24;21.70;;;7.50;;
76125;SDS011;65174;48.138;21.002;2023-02-14T15:26:27;37.60;;;10.45;;
76125;SDS011;65174;48.138;21.002;2023-02-14T15:29:35;15.57;;;8.27;;
76125;SDS011;65174;48.138;21.002;2023-02-14T15:32:37;16.38;;;9.38;;
76125;SDS011;65174;48.138;21.002;2023-02-14T15:35:39;18.63;;;10.57;;
76125;SDS011;65174;48.138;21.002;2023-02-14T15:38:48;33.33;;;7.78;;
76125;SDS011;65174;48.138;21.002;2023-02-14T15:41:52;17.13;;;5.72;;
76125;SDS011;65174;48.138;21.002;2023-02-14T15:48:32;19.05;;;8.00;;
76125;SDS011;65174;48.138;21.002;2023-02-14T15:51:35;14.07;;;6.63;;
76125;SDS011;65174;48.138;21.002;2023-02-14T15:54:40;23.98;;;7.18;;
76125;SDS011;65174;48.138;21.002;2023-02-14T15:57:52;15.30;;;5.72;;
76125;SDS011;65174;48.138;21.002;2023-02-14T16:00:57;13.88;;;8.70;;
76125;SDS011;65174;48.138;21.002;2023-02-14T16:04:01;18.55;;;9.30;;
76125;SDS011;65174;48.138;21.002;2023-02-14T16:13:27;361.88;;;116.20;;
76125;SDS011;65174;48.138;21.002;2023-02-14T16:16:54;81.90;;;33.00;;
76125;SDS011;65174;48.138;21.002;2023-02-14T16:19:57;26.42;;;10.95;;
76125;SDS011;65174;48.138;21.002;2023-02-14T16:26:41;25.48;;;10.80;;
76125;SDS011;65174;48.138;21.002;2023-02-14T16:29:45;17.48;;;8.77;;
76125;SDS011;65174;48.138;21.002;2023-02-14T16:32:47;12.10;;;5.57;;
76125;SDS011;65174;48.138;21.002;2023-02-14T16:35:51;12.77;;;6.57;;
76125;SDS011;65174;48.138;21.002;2023-02-14T16:38:55;7.70;;;4.60;;
76125;SDS011;65174;48.138;21.002;2023-02-14T16:41:58;8.00;;;4.97;;
76125;SDS011;65174;48.138;21.002;2023-02-14T16:45:00;14.43;;;5.53;;
76125;SDS011;65174;48.138;21.002;2023-02-14T16:48:03;20.38;;;9.88;;
76125;SDS011;65174;48.138;21.002;2023-02-14T16:51:05;23.42;;;11.52;;
76125;SDS011;65174;48.138;21.002;2023-02-14T16:54:11;16.67;;;7.10;;
76125;SDS011;65174;48.138;21.002;2023-02-14T16:57:22;15.07;;;6.90;;
76125;SDS011;65174;48.138;21.002;2023-02-14T17:00:29;20.50;;;10.27;;
76125;SDS011;65174;48.138;21.002;2023-02-14T17:03:32;21.15;;;9.15;;
76125;SDS011;65174;48.138;21.002;2023-02-14T17:06:35;13.93;;;7.57;;
76125;SDS011;65174;48.138;21.002;2023-02-14T17:09:41;16.87;;;9.10;;
76125;SDS011;65174;48.138;21.002;2023-02-14T17:12:52;22.80;;;10.27;;
76125;SDS011;65174;48.138;21.002;2023-02-14T17:15:59;23.55;;;11.30;;
76125;SDS011;65174;48.138;21.002;2023-02-14T17:19:02;55.83;;;24.60;;
76125;SDS011;65174;48.138;21.002;2023-02-14T17:22:04;81.97;;;34.40;;
76125;SDS011;65174;48.138;21.002;2023-02-14T17:25:07;99.57;;;46.73;;
76125;SDS011;65174;48.138;21.002;2023-02-14T17:28:09;77.63;;;39.63;;
76125;SDS011;65174;48.138;21.002;2023-02-14T17:31:11;54.75;;;30.27;;
76125;SDS011;65174;48.138;21.002;2023-02-14T17:34:14;34.97;;;18.63;;
76125;SDS011;65174;48.138;21.002;2023-02-14T17:37:16;15.20;;;8.60;;
76125;SDS011;65174;48.138;21.002;2023-02-14T17:40:20;30.60;;;14.70;;
76125;SDS011;65174;48.138;21.002;2023-02-14T17:43:21;26.85;;;13.73;;
76125;SDS011;65174;48.138;21.002;2023-02-14T17:46:26;26.92;;;13.90;;
76125;SDS011;65174;48.138;21.002;2023-02-14T17:49:30;18.80;;;11.95;;
76125;SDS011;65174;48.138;21.002;2023-02-14T17:52:32;16.85;;;9.57;;
76125;SDS011;65174;48.138;21.002;2023-02-14T17:55:35;32.37;;;13.70;;
76125;SDS011;65174;48.138;21.002;2023-02-14T17:58:37;55.28;;;21.90;;
76125;SDS011;65174;48.138;21.002;2023-02-14T18:01:40;61.20;;;25.67;;
76125;SDS011;65174;48.138;21.002;2023-02-14T18:04:42;34.15;;;16.40;;
76125;SDS011;65174;48.138;21.002;2023-02-14T18:07:44;46.67;;;18.73;;
76125;SDS011;65174;48.138;21.002;2023-02-14T18:10:46;54.13;;;20.83;;
76125;SDS011;65174;48.138;21.002;2023-02-14T18:13:49;32.95;;;14.93;;
76125;SDS011;65174;48.138;21.002;2023-02-14T18:16:51;35.63;;;17.25;;
76125;SDS011;65174;48.138;21.002;2023-02-14T18:19:53;29.33;;;14.07;;
76125;SDS011;65174;48.138;21.002;2023-02-14T18:22:55;25.15;;;13.15;;
76125;SDS011;65174;48.138;21.002;2023-02-14T18:25:59;20.97;;;10.37;;
76125;SDS011;65174;48.138;21.002;2023-02-14T18:29:07;28.40;;;12.73;;
76125;SDS011;65174;48.138;21.002;2023-02-14T18:32:09;19.20;;;9.85;;
76125;SDS011;65174;48.138;21.002;2023-02-14T18:35:13;20.48;;;11.07;;
76125;SDS011;65174;48.138;21.002;2023-02-14T18:38:15;20.63;;;11.18;;
76125;SDS011;65174;48.138;21.002;2023-02-14T18:41:18;21.53;;;11.10;;
76125;SDS011;65174;48.138;21.002;2023-02-14T18:44:20;17.52;;;10.02;;
76125;SDS011;65174;48.138;21.002;2023-02-14T18:47:24;16.77;;;8.85;;
76125;SDS011;65174;48.138;21.002;2023-02-14T18:50:26;17.70;;;9.35;;
76125;SDS011;65174;48.138;21.002;2023-02-14T18:53:28;26.17;;;11.80;;
76125;SDS011;65174;48.138;21.002;2023-02-14T18:56:31;30.40;;;15.57;;
76125;SDS011;65174;48.138;21.002;2023-02-14T18:59:36;23.00;;;13.52;;
76125;SDS011;65174;48.138;21.002;2023-02-14T19:02:38;20.25;;;10.70;;
76125;SDS011;65174;48.138;21.002;2023-02-14T19:05:40;24.60;;;12.25;;
76125;SDS011;65174;48.138;21.002;2023-02-14T19:08:43;22.33;;;10.95;;
76125;SDS011;65174;48.138;21.002;2023-02-14T19:12:00;25.67;;;12.30;;
76125;SDS011;65174;48.138;21.002;2023-02-14T19:15:02;24.98;;;12.25;;
76125;SDS011;65174;48.138;21.002;2023-02-14T19:18:06;24.40;;;12.27;;
76125;SDS011;65174;48.138;21.002;2023-02-14T19:21:13;27.85;;;14.10;;
76125;SDS011;65174;48.138;21.002;2023-02-14T19:24:17;25.90;;;13.35;;
76125;SDS011;65174;48.138;21.002;2023-02-14T19:27:20;32.70;;;16.93;;
76125;SDS011;65174;48.138;21.002;2023-02-14T19:30:23;43.30;;;21.27;;
76125;SDS011;65174;48.138;21.002;2023-02-14T19:33:25;27.77;;;14.88;;
76125;SDS011;65174;48.138;21.002;2023-02-14T19:36:27;30.20;;;15.18;;
76125;SDS011;65174;48.138;21.002;2023-02-14T19:39:30;36.15;;;18.13;;
76125;SDS011;65174;48.138;21.002;2023-02-14T19:42:35;45.67;;;19.30;;
76125;SDS011;65174;48.138;21.002;2023-02-14T19:45:38;45.78;;;19.60;;
76125;SDS011;65174;48.138;21.002;2023-02-14T19:48:40;38.47;;;18.95;;
76125;SDS011;65174;48.138;21.002;2023-02-14T19:51:43;40.00;;;19.70;;
76125;SDS011;65174;48.138;21.002;2023-02-14T19:54:46;54.90;;;22.73;;
76125;SDS011;65174;48.138;21.002;2023-02-14T19:57:49;50.73;;;23.90;;
76125;SDS011;65174;48.138;21.002;2023-02-14T20:00:54;45.38;;;20.13;;
76125;SDS011;65174;48.138;21.002;2023-02-14T20:04:00;46.97;;;19.73;;
76125;SDS011;65174;48.138;21.002;2023-02-14T20:07:03;65.82;;;23.65;;
76125;SDS011;65174;48.138;21.002;2023-02-14T20:10:06;46.92;;;21.60;;
76125;SDS011;65174;48.138;21.002;2023-02-14T20:13:09;55.67;;;19.50;;
76125;SDS011;65174;48.138;21.002;2023-02-14T20:16:11;57.55;;;19.15;;
76125;SDS011;65174;48.138;21.002;2023-02-14T20:19:15;159.07;;;47.75;;
76125;SDS011;65174;48.138;21.002;2023-02-14T20:22:19;47.25;;;20.70;;
76125;SDS011;65174;48.138;21.002;2023-02-14T20:25:21;25.17;;;12.95;;
76125;SDS011;65174;48.138;21.002;2023-02-14T20:28:23;23.00;;;11.23;;
76125;SDS011;65174;48.138;21.002;2023-02-14T20:31:25;24.05;;;11.88;;